RO-0020 weather

Aerodromul Buziaş
Buziaş, Romania

Public forecast

Using degrees Celsius for public forecast. Weather courtesy of forecast.io.

Closest aviation weather report (METAR) to Aerodromul Buziaş

Closest report is Timişoara Traian Vuia Airport, 13.8 nm (25.6 km) NW. Retrieved 2019/12/08 20:30 UTC (18 minutes ago):

LRTR 082030Z 13005KT 0400 R11/0600N R29/0650N FG BKN001 01/01 Q1016

Closest aviation forecast (TAF) to Aerodromul Buziaş

Closest forecast is Timişoara Traian Vuia Airport, 13.8 nm (25.6 km) NW. Retrieved 2019/12/08 18:33 UTC (2 hours ago):

TAF LRTR 081700Z 0818/0918 14006KT 0800 FG VV002 TEMPO 0818/0905 0150 FG VV001 BECMG 0907/0909 1500 BR BKN003 BECMG 0909/0911 5000 BKN010 PROB40 TEMPO 0911/0915 7000 -RA SCT010 BKN040